首页
METAR-TAF:

METAR-TAF

机场 :

牛津, 英格兰

纬度: 51-50-13N, 经度: 1-19-12W, 海拔: 82米

当前天气观测

该预报发布于38分钟前的07:20 UTC
静风
温度 5°C
湿度 100%
气压 1037 hPa
能見度: 0150
阴天层高于100英尺

METAR: EGTK 220720Z 00000KT 0150 R19/1000 FG OVC001 05/05 Q1037

时间: 07:58 (07:58 UTC)

预报

该预报发布于32分钟前的07:26 UTC
预报有效从22日的 07点(UTC)到 22日的 15点(UTC)
风速3节,风向多变
能見度: 4000
多云层高于400英尺
轻雾
短暂存在
从 22日的 07点(UTC)到 22日的 12点(UTC)
能見度: 1400
小毛毛雨
几率 30%
从 22日的 07点(UTC)到 22日的 11点(UTC)
能見度: 0300
成为
从 22日的 12点(UTC)到 22日的 15点(UTC)
能見度: 8000
多云层高于500英尺

TAF: EGTK 220726Z 2207/2215 VRB03KT 4000 BR BKN004 TEMPO 2207/2212 1400 -DZ PROB30 2207/2211 0300 FG VV/// BECMG 2212/2215 8000 NSW BKN005

超过4000个机场的气象观测和天气预报(METAR&TAF报告)。

可查询的气象台以黄色和红色小点在地图上表示。

将鼠标移到小点上方,可查看气象台名称。

然后点击查看天气观测和预报。

如需切换地图:点击带黑十字的绿色按钮放大地图;点击带横线的绿色按钮缩小地图;或者点击绿色箭头查看邻近地区的地图。


METAR-TAF: